createdAt,value
2019-02-16T00:00:08.128Z,1024.39
2019-02-16T00:00:48.676Z,1024.4
2019-02-16T00:01:29.245Z,1024.4
2019-02-16T00:02:09.829Z,1024.38
2019-02-16T00:02:50.396Z,1024.36
2019-02-16T00:03:30.960Z,1024.37
2019-02-16T00:04:11.544Z,1024.36
2019-02-16T00:04:52.112Z,1024.32
2019-02-16T00:05:32.675Z,1024.34
2019-02-16T00:06:13.246Z,1024.36
2019-02-16T00:06:53.820Z,1024.34
2019-02-16T00:07:34.390Z,1024.33
2019-02-16T00:08:14.963Z,1024.31
2019-02-16T00:08:55.513Z,1024.31
2019-02-16T00:09:36.101Z,1024.33
2019-02-16T00:10:16.659Z,1024.35
2019-02-16T00:10:57.231Z,1024.29
2019-02-16T00:11:37.812Z,1024.3
2019-02-16T00:12:18.381Z,1024.3
2019-02-16T00:12:59.000Z,1024.27
2019-02-16T00:13:39.561Z,1024.3
2019-02-16T00:14:20.116Z,1024.22
2019-02-16T00:15:00.669Z,1024.25
2019-02-16T00:15:41.227Z,1024.23
2019-02-16T00:16:21.828Z,1024.29
2019-02-16T00:17:02.416Z,1024.27
2019-02-16T00:17:42.977Z,1024.23
2019-02-16T00:18:23.537Z,1024.21
2019-02-16T00:19:04.124Z,1024.2
2019-02-16T00:19:44.672Z,1024.21
2019-02-16T00:20:25.242Z,1024.25
2019-02-16T00:21:05.813Z,1024.24
2019-02-16T00:21:46.378Z,1024.23
2019-02-16T00:22:26.925Z,1024.25
2019-02-16T00:23:07.521Z,1024.23
2019-02-16T00:23:48.078Z,1024.25
2019-02-16T00:24:28.674Z,1024.24
2019-02-16T00:25:09.228Z,1024.27
2019-02-16T00:25:49.812Z,1024.24
2019-02-16T00:26:30.377Z,1024.22
2019-02-16T00:27:10.958Z,1024.24
2019-02-16T00:27:51.520Z,1024.19
2019-02-16T00:28:32.071Z,1024.22
2019-02-16T00:29:12.620Z,1024.2
2019-02-16T00:29:53.201Z,1024.2
2019-02-16T00:30:33.769Z,1024.18
2019-02-16T00:31:14.333Z,1024.16
2019-02-16T00:31:54.898Z,1024.14
2019-02-16T00:32:35.482Z,1024.17
2019-02-16T00:33:16.043Z,1024.13
2019-02-16T00:33:56.596Z,1024.14
2019-02-16T00:34:37.151Z,1024.17
2019-02-16T00:35:17.721Z,1024.16
2019-02-16T00:35:58.294Z,1024.16
2019-02-16T00:36:38.849Z,1024.16
2019-02-16T00:37:19.421Z,1024.19
2019-02-16T00:37:59.973Z,1024.16
2019-02-16T00:38:40.529Z,1024.12
2019-02-16T00:39:21.085Z,1024.13
2019-02-16T00:40:01.635Z,1024.13
2019-02-16T00:40:42.200Z,1024.13
2019-02-16T00:41:22.762Z,1024.11
2019-02-16T00:42:03.314Z,1024.15
2019-02-16T00:42:43.863Z,1024.14
2019-02-16T00:43:24.458Z,1024.1
2019-02-16T00:44:04.999Z,1024.16
2019-02-16T00:44:45.573Z,1024.15
2019-02-16T00:45:26.148Z,1024.16
2019-02-16T00:46:06.739Z,1024.15
2019-02-16T00:46:47.306Z,1024.14
2019-02-16T00:47:27.888Z,1024.17
2019-02-16T00:48:08.463Z,1024.18
2019-02-16T00:48:49.057Z,1024.11
2019-02-16T00:49:29.617Z,1024.1
2019-02-16T00:50:10.178Z,1024.11
2019-02-16T00:50:50.776Z,1024.08
2019-02-16T00:51:31.355Z,1024.07
2019-02-16T00:52:11.963Z,1024.09
2019-02-16T00:52:52.603Z,1024.1
2019-02-16T00:53:33.189Z,1024.06
2019-02-16T00:54:13.737Z,1024.04
2019-02-16T00:54:54.317Z,1024.13
2019-02-16T00:55:34.894Z,1024.09
2019-02-16T00:56:15.484Z,1024.08
2019-02-16T00:56:56.041Z,1024.09
2019-02-16T00:57:36.617Z,1024.08
2019-02-16T00:58:17.173Z,1024.06
2019-02-16T00:58:57.713Z,1024.07
2019-02-16T00:59:38.612Z,1024.04
2019-02-16T01:00:19.204Z,1024.04
2019-02-16T01:00:59.796Z,1024.03
2019-02-16T01:01:40.348Z,1024.06
2019-02-16T01:02:20.912Z,1023.99
2019-02-16T01:03:01.469Z,1024.01
2019-02-16T01:03:42.045Z,1024
2019-02-16T01:04:22.585Z,1023.99
2019-02-16T01:05:05.763Z,1023.96
2019-02-16T01:05:46.332Z,1023.96
2019-02-16T01:06:26.888Z,1023.95
2019-02-16T01:07:07.425Z,1023.95
2019-02-16T01:07:48.067Z,1023.91
2019-02-16T01:08:28.574Z,1023.9
2019-02-16T01:09:09.149Z,1023.92
2019-02-16T01:09:49.733Z,1023.88
2019-02-16T01:10:30.331Z,1023.89
2019-02-16T01:11:10.880Z,1023.88
2019-02-16T01:11:51.439Z,1023.86
2019-02-16T01:12:32.019Z,1023.86
2019-02-16T01:13:12.567Z,1023.85
2019-02-16T01:13:53.115Z,1023.86
2019-02-16T01:14:33.690Z,1023.83
2019-02-16T01:15:14.273Z,1023.8
2019-02-16T01:15:54.820Z,1023.79
2019-02-16T01:16:35.429Z,1023.77
2019-02-16T01:17:16.020Z,1023.82
2019-02-16T01:17:56.603Z,1023.74
2019-02-16T01:18:37.187Z,1023.78
2019-02-16T01:19:17.752Z,1023.74
2019-02-16T01:19:58.354Z,1023.79
2019-02-16T01:20:38.909Z,1023.74
2019-02-16T01:21:22.691Z,1023.75
2019-02-16T01:22:00.054Z,1023.78
2019-02-16T01:22:40.608Z,1023.73
2019-02-16T01:23:21.211Z,1023.72
2019-02-16T01:24:01.782Z,1023.68
2019-02-16T01:24:42.357Z,1023.73
2019-02-16T01:25:22.913Z,1023.69
2019-02-16T01:26:03.464Z,1023.71
2019-02-16T01:26:44.016Z,1023.66
2019-02-16T01:27:24.628Z,1023.68
2019-02-16T01:28:05.165Z,1023.72
2019-02-16T01:28:45.727Z,1023.68
2019-02-16T01:29:26.298Z,1023.66
2019-02-16T01:30:06.897Z,1023.63
2019-02-16T01:30:47.461Z,1023.65
2019-02-16T01:31:28.084Z,1023.63
2019-02-16T01:32:08.675Z,1023.66
2019-02-16T01:32:49.941Z,1023.63
2019-02-16T01:33:30.511Z,1023.61
2019-02-16T01:34:11.164Z,1023.57
2019-02-16T01:34:51.797Z,1023.6
2019-02-16T01:35:32.399Z,1023.6
2019-02-16T01:36:13.017Z,1023.61
2019-02-16T01:36:53.652Z,1023.62
2019-02-16T01:37:34.271Z,1023.59
2019-02-16T01:38:14.864Z,1023.58
2019-02-16T01:38:55.491Z,1023.58
2019-02-16T01:39:36.126Z,1023.53
2019-02-16T01:40:16.759Z,1023.57
2019-02-16T01:40:57.423Z,1023.54
2019-02-16T01:41:37.989Z,1023.52
2019-02-16T01:42:18.635Z,1023.53
2019-02-16T01:42:59.236Z,1023.52
2019-02-16T01:43:39.837Z,1023.52
2019-02-16T01:44:20.469Z,1023.49
2019-02-16T01:45:01.030Z,1023.48
2019-02-16T01:45:41.624Z,1023.46
2019-02-16T01:46:22.198Z,1023.46
2019-02-16T01:47:02.810Z,1023.45
2019-02-16T01:47:43.408Z,1023.42
2019-02-16T01:48:23.969Z,1023.42
2019-02-16T01:49:04.573Z,1023.43
2019-02-16T01:49:45.133Z,1023.39
2019-02-16T01:50:25.709Z,1023.38
2019-02-16T01:51:06.276Z,1023.42
2019-02-16T01:51:46.944Z,1023.4
2019-02-16T01:52:27.499Z,1023.45
2019-02-16T01:53:08.101Z,1023.39
2019-02-16T01:53:48.726Z,1023.44
2019-02-16T01:54:29.329Z,1023.44
2019-02-16T01:55:09.946Z,1023.42
2019-02-16T01:55:50.587Z,1023.42
2019-02-16T01:56:31.182Z,1023.41
2019-02-16T01:57:11.838Z,1023.42
2019-02-16T01:57:52.424Z,1023.37
2019-02-16T01:58:33.029Z,1023.38
2019-02-16T01:59:13.618Z,1023.38
2019-02-16T01:59:54.200Z,1023.38
2019-02-16T02:00:34.825Z,1023.36
2019-02-16T02:01:15.453Z,1023.35
2019-02-16T02:01:56.031Z,1023.3
2019-02-16T02:02:36.618Z,1023.32
2019-02-16T02:03:17.234Z,1023.34
2019-02-16T02:03:57.824Z,1023.32
2019-02-16T02:04:38.478Z,1023.32
2019-02-16T02:05:19.097Z,1023.27
2019-02-16T02:05:59.688Z,1023.25
2019-02-16T02:06:40.266Z,1023.2
2019-02-16T02:07:20.853Z,1023.24
2019-02-16T02:08:01.476Z,1023.17
2019-02-16T02:08:42.076Z,1023.19
2019-02-16T02:09:22.700Z,1023.19
2019-02-16T02:10:03.314Z,1023.19
2019-02-16T02:10:43.952Z,1023.16
2019-02-16T02:11:24.647Z,1023.14
2019-02-16T02:12:05.242Z,1023.21
2019-02-16T02:12:45.877Z,1023.14
2019-02-16T02:13:26.460Z,1023.15
2019-02-16T02:14:07.045Z,1023.15
2019-02-16T02:14:47.694Z,1023.12
2019-02-16T02:15:28.295Z,1023.12
2019-02-16T02:16:08.877Z,1023.09
2019-02-16T02:16:49.489Z,1023.1
2019-02-16T02:17:30.131Z,1023.04
2019-02-16T02:18:10.724Z,1023.08
2019-02-16T02:18:51.307Z,1023.08
2019-02-16T02:19:31.928Z,1023.08
2019-02-16T02:20:12.505Z,1023.11
2019-02-16T02:20:53.149Z,1023.07
2019-02-16T02:21:40.795Z,1023.07
2019-02-16T02:22:14.396Z,1023.1
2019-02-16T02:22:54.995Z,1023.1
2019-02-16T02:23:35.663Z,1023.05
2019-02-16T02:24:16.264Z,1023.03
2019-02-16T02:24:56.860Z,1023.06
2019-02-16T02:25:37.428Z,1023.02
2019-02-16T02:26:18.030Z,1023.04
2019-02-16T02:26:58.611Z,1023.01
2019-02-16T02:27:39.218Z,1022.97
2019-02-16T02:28:19.827Z,1022.97
2019-02-16T02:29:00.453Z,1022.99
2019-02-16T02:29:41.083Z,1023.02
2019-02-16T02:30:21.680Z,1022.98
2019-02-16T02:31:02.303Z,1023.03
2019-02-16T02:31:42.903Z,1022.99
2019-02-16T02:32:23.519Z,1023.01
2019-02-16T02:33:04.114Z,1022.97
2019-02-16T02:33:44.719Z,1023.01
2019-02-16T02:34:25.272Z,1022.99
2019-02-16T02:35:05.901Z,1023.01
2019-02-16T02:35:46.496Z,1022.98
2019-02-16T02:36:27.089Z,1022.97
2019-02-16T02:37:07.664Z,1022.98
2019-02-16T02:37:48.272Z,1022.95
2019-02-16T02:38:28.873Z,1022.98
2019-02-16T02:39:09.487Z,1022.98
2019-02-16T02:39:50.110Z,1022.95
2019-02-16T02:40:30.696Z,1022.98
2019-02-16T02:41:11.328Z,1022.98
2019-02-16T02:41:51.915Z,1022.94
2019-02-16T02:42:32.506Z,1022.99
2019-02-16T02:43:13.119Z,1022.93
2019-02-16T02:43:53.726Z,1022.92
2019-02-16T02:44:34.317Z,1022.91
2019-02-16T02:45:14.945Z,1022.9
2019-02-16T02:45:55.574Z,1022.95
2019-02-16T02:46:36.134Z,1022.92
2019-02-16T02:47:16.803Z,1022.89
2019-02-16T02:47:57.404Z,1022.91
2019-02-16T02:48:37.997Z,1022.9
2019-02-16T02:49:18.588Z,1022.88
2019-02-16T02:49:59.184Z,1022.93
2019-02-16T02:50:39.780Z,1022.89
2019-02-16T02:51:20.368Z,1022.83
2019-02-16T02:52:00.964Z,1022.88
2019-02-16T02:52:41.573Z,1022.86
2019-02-16T02:53:30.609Z,1022.84
2019-02-16T02:54:02.788Z,1022.83
2019-02-16T02:54:43.397Z,1022.85
2019-02-16T02:55:23.989Z,1022.82
2019-02-16T02:56:04.614Z,1022.85
2019-02-16T02:56:45.213Z,1022.86
2019-02-16T02:57:25.819Z,1022.82
2019-02-16T02:58:06.439Z,1022.84
2019-02-16T02:58:47.031Z,1022.86
2019-02-16T02:59:27.614Z,1022.85
2019-02-16T03:00:08.212Z,1022.85
2019-02-16T03:00:48.853Z,1022.86
2019-02-16T03:01:29.457Z,1022.85
2019-02-16T03:02:10.036Z,1022.86
2019-02-16T03:02:50.635Z,1022.86
2019-02-16T03:03:31.241Z,1022.87
2019-02-16T03:04:11.868Z,1022.88
2019-02-16T03:04:52.475Z,1022.85
2019-02-16T03:05:33.077Z,1022.86
2019-02-16T03:06:13.673Z,1022.89
2019-02-16T03:06:54.265Z,1022.87
2019-02-16T03:07:34.870Z,1022.89
2019-02-16T03:08:15.495Z,1022.83
2019-02-16T03:08:56.104Z,1022.85
2019-02-16T03:09:36.714Z,1022.8
2019-02-16T03:10:17.313Z,1022.81
2019-02-16T03:10:57.919Z,1022.79
2019-02-16T03:11:38.521Z,1022.82
2019-02-16T03:12:19.126Z,1022.83
2019-02-16T03:12:59.724Z,1022.78
2019-02-16T03:13:40.327Z,1022.79
2019-02-16T03:14:20.940Z,1022.83
2019-02-16T03:15:01.530Z,1022.75
2019-02-16T03:15:42.130Z,1022.76
2019-02-16T03:16:22.772Z,1022.73
2019-02-16T03:17:03.424Z,1022.77
2019-02-16T03:17:44.020Z,1022.75
2019-02-16T03:18:24.644Z,1022.79
2019-02-16T03:19:05.257Z,1022.75
2019-02-16T03:19:45.875Z,1022.8
2019-02-16T03:20:26.465Z,1022.76
2019-02-16T03:21:07.083Z,1022.76
2019-02-16T03:21:47.697Z,1022.78
2019-02-16T03:22:28.314Z,1022.72
2019-02-16T03:23:08.917Z,1022.75
2019-02-16T03:23:49.556Z,1022.77
2019-02-16T03:24:30.139Z,1022.73
2019-02-16T03:25:10.749Z,1022.72
2019-02-16T03:25:51.364Z,1022.69
2019-02-16T03:26:31.959Z,1022.75
2019-02-16T03:27:12.601Z,1022.75
2019-02-16T03:27:53.206Z,1022.69
2019-02-16T03:28:33.822Z,1022.71
2019-02-16T03:29:14.416Z,1022.7
2019-02-16T03:29:55.059Z,1022.68
2019-02-16T03:30:35.659Z,1022.73
2019-02-16T03:31:16.256Z,1022.72
2019-02-16T03:31:56.853Z,1022.7
2019-02-16T03:32:37.461Z,1022.7
2019-02-16T03:33:18.057Z,1022.7
2019-02-16T03:33:58.680Z,1022.7
2019-02-16T03:34:39.306Z,1022.68
2019-02-16T03:35:19.907Z,1022.7
2019-02-16T03:36:00.498Z,1022.64
2019-02-16T03:36:41.100Z,1022.65
2019-02-16T03:37:21.724Z,1022.64
2019-02-16T03:38:02.298Z,1022.64
2019-02-16T03:38:42.919Z,1022.63
2019-02-16T03:39:23.520Z,1022.62
2019-02-16T03:40:04.098Z,1022.58
2019-02-16T03:40:44.703Z,1022.62
2019-02-16T03:41:25.308Z,1022.62
2019-02-16T03:42:05.945Z,1022.63
2019-02-16T03:42:46.554Z,1022.58
2019-02-16T03:43:27.170Z,1022.64
2019-02-16T03:44:07.766Z,1022.65
2019-02-16T03:44:48.368Z,1022.66
2019-02-16T03:45:28.981Z,1022.67
2019-02-16T03:46:09.569Z,1022.67
2019-02-16T03:46:50.167Z,1022.63
2019-02-16T03:47:30.749Z,1022.66
2019-02-16T03:48:11.363Z,1022.61
2019-02-16T03:48:51.988Z,1022.61
2019-02-16T03:49:32.610Z,1022.56
2019-02-16T03:50:13.241Z,1022.58
2019-02-16T03:50:53.863Z,1022.58
2019-02-16T03:51:34.456Z,1022.57
2019-02-16T03:52:15.041Z,1022.55
2019-02-16T03:52:55.624Z,1022.56
2019-02-16T03:53:36.264Z,1022.58
2019-02-16T03:54:16.884Z,1022.55
2019-02-16T03:54:57.590Z,1022.52
2019-02-16T03:55:38.196Z,1022.51
2019-02-16T03:56:18.792Z,1022.55
2019-02-16T03:56:59.401Z,1022.53
2019-02-16T03:57:39.995Z,1022.52
2019-02-16T03:58:20.644Z,1022.49
2019-02-16T03:59:01.257Z,1022.49
2019-02-16T03:59:42.256Z,1022.54
2019-02-16T04:00:22.860Z,1022.5
2019-02-16T04:01:03.495Z,1022.49
2019-02-16T04:01:44.098Z,1022.44
2019-02-16T04:02:24.687Z,1022.46
2019-02-16T04:03:05.278Z,1022.5
2019-02-16T04:03:45.929Z,1022.51
2019-02-16T04:04:26.519Z,1022.48
2019-02-16T04:05:07.119Z,1022.46
2019-02-16T04:05:47.688Z,1022.47
2019-02-16T04:06:28.267Z,1022.47
2019-02-16T04:07:08.896Z,1022.46
2019-02-16T04:07:49.505Z,1022.51
2019-02-16T04:08:30.106Z,1022.47
2019-02-16T04:09:10.689Z,1022.45
2019-02-16T04:09:51.299Z,1022.44
2019-02-16T04:10:31.908Z,1022.47
2019-02-16T04:11:12.532Z,1022.43
2019-02-16T04:11:53.096Z,1022.42
2019-02-16T04:12:33.698Z,1022.45
2019-02-16T04:13:14.322Z,1022.42
2019-02-16T04:13:54.916Z,1022.44
2019-02-16T04:14:35.518Z,1022.42
2019-02-16T04:15:16.112Z,1022.35
2019-02-16T04:15:56.707Z,1022.37
2019-02-16T04:16:37.293Z,1022.4
2019-02-16T04:17:17.874Z,1022.34
2019-02-16T04:17:58.440Z,1022.32
2019-02-16T04:18:39.036Z,1022.34
2019-02-16T04:19:19.596Z,1022.36
2019-02-16T04:20:00.318Z,1022.36
2019-02-16T04:20:40.727Z,1022.3
2019-02-16T04:21:21.298Z,1022.28
2019-02-16T04:22:01.946Z,1022.33
2019-02-16T04:22:42.492Z,1022.31
2019-02-16T04:23:23.058Z,1022.27
2019-02-16T04:24:03.650Z,1022.25
2019-02-16T04:24:44.210Z,1022.26
2019-02-16T04:25:24.827Z,1022.27
2019-02-16T04:26:05.424Z,1022.25
2019-02-16T04:26:45.978Z,1022.24
2019-02-16T04:27:26.536Z,1022.22
2019-02-16T04:28:07.100Z,1022.24
2019-02-16T04:28:47.672Z,1022.24
2019-02-16T04:29:28.245Z,1022.24
2019-02-16T04:30:08.801Z,1022.21
2019-02-16T04:30:49.386Z,1022.2
2019-02-16T04:31:29.946Z,1022.19
2019-02-16T04:32:10.521Z,1022.23
2019-02-16T04:32:51.087Z,1022.16
2019-02-16T04:33:31.644Z,1022.1
2019-02-16T04:34:12.228Z,1022.17
2019-02-16T04:34:52.799Z,1022.13
2019-02-16T04:35:33.423Z,1022.13
2019-02-16T04:36:13.970Z,1022.12
2019-02-16T04:36:54.553Z,1022.09
2019-02-16T04:37:35.127Z,1022.07
2019-02-16T04:38:15.719Z,1022.05
2019-02-16T04:38:56.311Z,1022.06
2019-02-16T04:39:36.898Z,1022.04
2019-02-16T04:40:17.506Z,1022.05
2019-02-16T04:40:58.062Z,1022.07
2019-02-16T04:41:38.648Z,1022.01
2019-02-16T04:42:19.204Z,1022.04
2019-02-16T04:42:59.770Z,1022
2019-02-16T04:43:40.338Z,1021.99
2019-02-16T04:44:20.939Z,1021.98
2019-02-16T04:45:01.528Z,1021.95
2019-02-16T04:45:42.069Z,1021.95
2019-02-16T04:46:22.630Z,1021.93
2019-02-16T04:47:03.216Z,1021.93
2019-02-16T04:47:43.808Z,1021.93
2019-02-16T04:48:24.475Z,1021.94
2019-02-16T04:49:05.039Z,1021.92
2019-02-16T04:49:45.610Z,1021.89
2019-02-16T04:50:26.177Z,1021.89
2019-02-16T04:51:06.771Z,1021.91
2019-02-16T04:51:47.366Z,1021.9
2019-02-16T04:52:34.228Z,1021.91
2019-02-16T04:53:08.490Z,1021.88
2019-02-16T04:53:49.044Z,1021.91
2019-02-16T04:54:29.635Z,1021.86
2019-02-16T04:55:10.224Z,1021.84
2019-02-16T04:55:50.814Z,1021.84
2019-02-16T04:56:31.387Z,1021.85
2019-02-16T04:57:11.946Z,1021.87
2019-02-16T04:57:52.497Z,1021.89
2019-02-16T04:58:33.082Z,1021.85
2019-02-16T04:59:13.893Z,1021.85
2019-02-16T04:59:54.472Z,1021.84
2019-02-16T05:00:35.014Z,1021.81
2019-02-16T05:01:15.572Z,1021.81
2019-02-16T05:01:56.113Z,1021.85
2019-02-16T05:02:36.687Z,1021.8
2019-02-16T05:03:17.241Z,1021.81
2019-02-16T05:03:57.814Z,1021.83
2019-02-16T05:04:38.367Z,1021.78
2019-02-16T05:05:18.938Z,1021.78
2019-02-16T05:06:00.069Z,1021.75
2019-02-16T05:06:40.093Z,1021.8
2019-02-16T05:07:20.646Z,1021.75
2019-02-16T05:08:01.195Z,1021.76
2019-02-16T05:08:41.756Z,1021.76
2019-02-16T05:09:22.318Z,1021.72
2019-02-16T05:10:02.858Z,1021.74
2019-02-16T05:10:43.414Z,1021.73
2019-02-16T05:11:23.958Z,1021.74
2019-02-16T05:12:04.576Z,1021.75
2019-02-16T05:12:45.151Z,1021.73
2019-02-16T05:13:25.700Z,1021.73
2019-02-16T05:14:06.263Z,1021.72
2019-02-16T05:14:47.131Z,1021.71
2019-02-16T05:15:27.388Z,1021.71
2019-02-16T05:16:07.986Z,1021.69
2019-02-16T05:16:48.548Z,1021.7
2019-02-16T05:17:29.104Z,1021.71
2019-02-16T05:18:09.642Z,1021.69
2019-02-16T05:18:50.201Z,1021.68
2019-02-16T05:19:30.837Z,1021.68
2019-02-16T05:20:11.421Z,1021.72
2019-02-16T05:20:51.990Z,1021.74
2019-02-16T05:21:32.563Z,1021.73
2019-02-16T05:22:13.120Z,1021.7
2019-02-16T05:22:53.701Z,1021.74
2019-02-16T05:23:34.264Z,1021.71
2019-02-16T05:24:14.814Z,1021.71
2019-02-16T05:24:55.370Z,1021.75
2019-02-16T05:25:35.935Z,1021.67
2019-02-16T05:26:16.494Z,1021.67
2019-02-16T05:26:57.071Z,1021.69
2019-02-16T05:27:37.669Z,1021.7
2019-02-16T05:28:18.210Z,1021.71
2019-02-16T05:28:58.772Z,1021.71
2019-02-16T05:29:39.368Z,1021.69
2019-02-16T05:30:19.941Z,1021.66
2019-02-16T05:31:00.486Z,1021.68
2019-02-16T05:31:41.050Z,1021.63
2019-02-16T05:32:21.664Z,1021.63
2019-02-16T05:33:02.238Z,1021.61
2019-02-16T05:33:42.815Z,1021.6
2019-02-16T05:34:23.368Z,1021.64
2019-02-16T05:35:03.928Z,1021.63
2019-02-16T05:35:44.516Z,1021.62
2019-02-16T05:36:25.112Z,1021.62
2019-02-16T05:37:05.674Z,1021.57
2019-02-16T05:37:46.458Z,1021.59
2019-02-16T05:38:27.026Z,1021.62
2019-02-16T05:39:07.587Z,1021.62
2019-02-16T05:39:48.142Z,1021.58
2019-02-16T05:40:28.703Z,1021.6
2019-02-16T05:41:09.306Z,1021.58
2019-02-16T05:41:49.867Z,1021.62
2019-02-16T05:42:30.418Z,1021.61
2019-02-16T05:43:11.007Z,1021.64
2019-02-16T05:43:51.596Z,1021.63
2019-02-16T05:44:32.159Z,1021.64
2019-02-16T05:45:12.701Z,1021.66
2019-02-16T05:45:53.295Z,1021.68
2019-02-16T05:46:33.859Z,1021.66
2019-02-16T05:47:14.408Z,1021.67
2019-02-16T05:47:55.014Z,1021.67
2019-02-16T05:48:35.566Z,1021.7
2019-02-16T05:49:16.115Z,1021.68
2019-02-16T05:49:56.689Z,1021.66
2019-02-16T05:50:37.267Z,1021.64
2019-02-16T05:51:17.873Z,1021.68
2019-02-16T05:51:58.445Z,1021.69
2019-02-16T05:52:39.027Z,1021.68
2019-02-16T05:53:20.266Z,1021.65
2019-02-16T05:54:00.166Z,1021.65
2019-02-16T05:54:40.731Z,1021.66
2019-02-16T05:55:21.298Z,1021.68
2019-02-16T05:56:01.873Z,1021.62
2019-02-16T05:56:42.437Z,1021.62
2019-02-16T05:57:23.029Z,1021.63
2019-02-16T05:58:03.567Z,1021.58
2019-02-16T05:58:44.122Z,1021.61
2019-02-16T05:59:24.980Z,1021.59
2019-02-16T06:00:05.554Z,1021.58
2019-02-16T06:00:46.119Z,1021.61
2019-02-16T06:01:26.666Z,1021.62
2019-02-16T06:02:07.234Z,1021.65
2019-02-16T06:02:47.827Z,1021.64
2019-02-16T06:03:28.387Z,1021.61
2019-02-16T06:04:09.005Z,1021.64
2019-02-16T06:04:49.523Z,1021.57
2019-02-16T06:05:30.106Z,1021.62
2019-02-16T06:06:10.670Z,1021.61
2019-02-16T06:06:51.252Z,1021.58
2019-02-16T06:07:31.881Z,1021.58
2019-02-16T06:08:12.423Z,1021.63
2019-02-16T06:08:52.989Z,1021.62
2019-02-16T06:09:33.566Z,1021.62
2019-02-16T06:10:14.133Z,1021.58
2019-02-16T06:10:54.683Z,1021.57
2019-02-16T06:11:35.256Z,1021.6
2019-02-16T06:12:15.814Z,1021.54
2019-02-16T06:12:56.393Z,1021.56
2019-02-16T06:13:36.950Z,1021.54
2019-02-16T06:14:17.559Z,1021.51
2019-02-16T06:14:58.134Z,1021.53
2019-02-16T06:15:38.711Z,1021.52
2019-02-16T06:16:19.294Z,1021.52
2019-02-16T06:16:59.862Z,1021.48
2019-02-16T06:17:40.432Z,1021.51
2019-02-16T06:18:20.999Z,1021.5
2019-02-16T06:19:01.585Z,1021.51
2019-02-16T06:19:42.140Z,1021.52
2019-02-16T06:20:22.717Z,1021.51
2019-02-16T06:21:03.374Z,1021.48
2019-02-16T06:21:43.956Z,1021.51
2019-02-16T06:22:24.513Z,1021.5
2019-02-16T06:23:05.086Z,1021.54
2019-02-16T06:23:45.660Z,1021.54
2019-02-16T06:24:26.226Z,1021.55
2019-02-16T06:25:06.792Z,1021.6
2019-02-16T06:25:47.397Z,1021.58
2019-02-16T06:26:27.979Z,1021.55
2019-02-16T06:27:08.558Z,1021.55
2019-02-16T06:27:49.160Z,1021.62
2019-02-16T06:28:29.740Z,1021.62
2019-02-16T06:29:10.311Z,1021.58
2019-02-16T06:29:50.868Z,1021.58
2019-02-16T06:30:31.447Z,1021.54
2019-02-16T06:31:12.030Z,1021.58
2019-02-16T06:31:52.606Z,1021.55
2019-02-16T06:32:33.154Z,1021.53
2019-02-16T06:33:13.728Z,1021.52
2019-02-16T06:33:54.322Z,1021.51
2019-02-16T06:34:34.892Z,1021.5
2019-02-16T06:35:15.439Z,1021.5
2019-02-16T06:35:56.002Z,1021.48
2019-02-16T06:36:36.547Z,1021.47
2019-02-16T06:37:17.110Z,1021.51
2019-02-16T06:37:57.674Z,1021.48
2019-02-16T06:38:38.220Z,1021.5
2019-02-16T06:39:18.812Z,1021.49
2019-02-16T06:39:59.375Z,1021.51
2019-02-16T06:40:41.137Z,1021.53
2019-02-16T06:41:20.514Z,1021.54
2019-02-16T06:42:01.074Z,1021.58
2019-02-16T06:42:41.672Z,1021.59
2019-02-16T06:43:22.238Z,1021.59
2019-02-16T06:44:02.790Z,1021.58
2019-02-16T06:44:43.376Z,1021.61
2019-02-16T06:45:23.929Z,1021.57
2019-02-16T06:46:04.480Z,1021.55
2019-02-16T06:46:45.034Z,1021.59
2019-02-16T06:47:25.578Z,1021.6
2019-02-16T06:48:06.130Z,1021.63
2019-02-16T06:48:46.691Z,1021.63
2019-02-16T06:49:27.263Z,1021.62
2019-02-16T06:50:07.837Z,1021.67
2019-02-16T06:50:48.400Z,1021.67
2019-02-16T06:51:28.946Z,1021.68
2019-02-16T06:52:09.568Z,1021.66
2019-02-16T06:52:50.122Z,1021.7
2019-02-16T06:53:30.717Z,1021.7
2019-02-16T06:54:11.300Z,1021.71
2019-02-16T06:54:51.902Z,1021.69
2019-02-16T06:55:32.471Z,1021.74
2019-02-16T06:56:13.081Z,1021.69
2019-02-16T06:56:53.713Z,1021.71
2019-02-16T06:57:34.287Z,1021.7
2019-02-16T06:58:14.836Z,1021.73
2019-02-16T06:58:55.842Z,1021.72
2019-02-16T06:59:36.475Z,1021.73
2019-02-16T07:00:17.075Z,1021.72
2019-02-16T07:00:57.647Z,1021.72
2019-02-16T07:01:38.262Z,1021.72
2019-02-16T07:02:18.834Z,1021.69
2019-02-16T07:02:59.409Z,1021.67
2019-02-16T07:03:39.973Z,1021.67
2019-02-16T07:04:20.555Z,1021.66
2019-02-16T07:05:01.130Z,1021.66
2019-02-16T07:05:41.689Z,1021.68
2019-02-16T07:06:22.258Z,1021.67
2019-02-16T07:07:02.836Z,1021.63
2019-02-16T07:07:43.401Z,1021.66
2019-02-16T07:08:24.195Z,1021.68
2019-02-16T07:09:04.824Z,1021.66
2019-02-16T07:09:45.550Z,1021.64
2019-02-16T07:10:26.271Z,1021.72
2019-02-16T07:11:07.010Z,1021.72
2019-02-16T07:11:47.638Z,1021.71
2019-02-16T07:12:28.288Z,1021.7
2019-02-16T07:13:08.796Z,1021.74
2019-02-16T07:13:49.361Z,1021.72
2019-02-16T07:14:31.850Z,1021.75
2019-02-16T07:15:10.516Z,1021.71
2019-02-16T07:15:51.072Z,1021.71
2019-02-16T07:16:31.636Z,1021.71
2019-02-16T07:17:12.185Z,1021.69
2019-02-16T07:17:52.826Z,1021.68
2019-02-16T07:18:33.384Z,1021.66
2019-02-16T07:19:14.136Z,1021.66
2019-02-16T07:19:55.703Z,1021.68
2019-02-16T07:20:35.500Z,1021.68
2019-02-16T07:21:16.070Z,1021.66
2019-02-16T07:21:56.675Z,1021.62
2019-02-16T07:22:37.823Z,1021.66
2019-02-16T07:23:22.369Z,1021.64
2019-02-16T07:23:59.025Z,1021.64
2019-02-16T07:24:39.584Z,1021.68
2019-02-16T07:25:20.192Z,1021.65
2019-02-16T07:26:02.226Z,1021.69
2019-02-16T07:26:42.761Z,1021.71
2019-02-16T07:27:24.817Z,1021.68
2019-02-16T07:28:07.060Z,1021.67
2019-02-16T07:28:52.705Z,1021.69
2019-02-16T07:29:35.218Z,1021.7
2019-02-16T07:30:17.207Z,1021.71
2019-02-16T07:30:57.715Z,1021.7
2019-02-16T07:31:39.210Z,1021.66
2019-02-16T07:32:20.707Z,1021.65
2019-02-16T07:33:04.855Z,1021.7
2019-02-16T07:33:48.716Z,1021.68
2019-02-16T07:34:30.706Z,1021.68
2019-02-16T07:35:15.208Z,1021.69
2019-02-16T07:35:59.705Z,1021.66
2019-02-16T07:36:40.985Z,1021.67
2019-02-16T07:37:23.720Z,1021.68
2019-02-16T07:38:04.206Z,1021.66
2019-02-16T07:38:45.214Z,1021.65
2019-02-16T07:39:25.825Z,1021.71
2019-02-16T07:40:06.383Z,1021.64
2019-02-16T07:40:46.971Z,1021.63
2019-02-16T07:41:27.493Z,1021.61
2019-02-16T07:42:08.051Z,1021.64
2019-02-16T07:42:48.606Z,1021.64
2019-02-16T07:43:29.179Z,1021.61
2019-02-16T07:44:09.723Z,1021.64
2019-02-16T07:44:50.315Z,1021.62
2019-02-16T07:45:30.874Z,1021.58
2019-02-16T07:46:11.458Z,1021.57
2019-02-16T07:46:52.009Z,1021.59
2019-02-16T07:47:32.571Z,1021.56
2019-02-16T07:48:13.154Z,1021.57
2019-02-16T07:48:53.701Z,1021.57
2019-02-16T07:49:34.260Z,1021.56
2019-02-16T07:50:14.833Z,1021.55
2019-02-16T07:50:55.393Z,1021.59
2019-02-16T07:51:35.972Z,1021.54
2019-02-16T07:52:16.539Z,1021.55
2019-02-16T07:52:57.108Z,1021.52
2019-02-16T07:53:37.674Z,1021.54
2019-02-16T07:54:18.233Z,1021.54
2019-02-16T07:54:58.802Z,1021.55
2019-02-16T07:55:39.365Z,1021.5
2019-02-16T07:56:19.922Z,1021.48
2019-02-16T07:57:00.482Z,1021.54
2019-02-16T07:57:41.084Z,1021.52
2019-02-16T07:58:21.667Z,1021.56
2019-02-16T07:59:02.237Z,1021.56
2019-02-16T07:59:42.815Z,1021.55
2019-02-16T08:00:23.367Z,1021.56
2019-02-16T08:01:03.941Z,1021.53
2019-02-16T08:01:44.508Z,1021.53
2019-02-16T08:02:25.090Z,1021.52
2019-02-16T08:03:05.655Z,1021.59
2019-02-16T08:03:46.226Z,1021.52
2019-02-16T08:04:26.796Z,1021.56
2019-02-16T08:05:07.367Z,1021.55
2019-02-16T08:05:47.966Z,1021.57
2019-02-16T08:06:28.593Z,1021.58
2019-02-16T08:07:09.211Z,1021.57
2019-02-16T08:07:49.786Z,1021.6
2019-02-16T08:08:30.338Z,1021.59
2019-02-16T08:09:10.911Z,1021.64
2019-02-16T08:09:51.461Z,1021.62
2019-02-16T08:10:32.066Z,1021.64
2019-02-16T08:11:12.625Z,1021.66
2019-02-16T08:11:53.205Z,1021.64
2019-02-16T08:12:33.766Z,1021.63